Newbury, United Kingdom
Current Conditions -  °F | °C
As of 12:50 PM on Monday 20 Oct 2014 (Local Time) from EGUB Reporting Station
Broken Clouds Broken Clouds  
Wind Chill: 59°   Ceiling: 5000
Heat Index: 59°   Visibility: 6mi
Dew Point: 48°   Wind: 14mph
Humidity: 67%   Direction: 210°SSW
Pressure: 30"   Gusts: NA
Location:  51.4°N, 1.32°W
Report Text: EGUB 201150Z 21012KT 9999 SCT025 BKN050 15/09 Q1016 BLU TEMPO -SHRA SCT020 WHT
Loading
Personal Weather Stations






























Interactive Weather Map
Tropical Storm Tracking
New forecast layout! Learn more

10-Day Weather Forecast

Advertisements
Track Severe Weather on mobile